Time;durP1;ratioP1;P1;durP2;ratioP2;P2;SDS_P1;SDS_P2;PMS_P1;PMS_P2;Temp;Humidity;BMP_temperature;BMP_pressure;BME280_temperature;BME280_humidity;BME280_pressure;Samples;Min_cycle;Max_cycle;Signal;HPM_P1;HPM_P2
2024/01/13 00:02:02;;;;;;;6.18;5.68;;;1.40;99.90;;;;;;5057132;28;20233;-74
2024/01/13 00:04:29;;;;;;;6.00;5.50;;;1.30;99.90;;;;;;5055705;28;20229;-74
2024/01/13 00:06:56;;;;;;;6.57;6.07;;;1.30;99.90;;;;;;5053953;28;20693;-75
2024/01/13 00:09:23;;;;;;;5.90;5.40;;;1.30;99.90;;;;;;5056631;28;20199;-74
2024/01/13 00:11:50;;;;;;;6.60;6.10;;;1.20;99.90;;;;;;5053859;28;20203;-74
2024/01/13 00:14:17;;;;;;;6.63;5.93;;;1.30;99.90;;;;;;5058306;28;20218;-74
2024/01/13 00:16:46;;;;;;;6.40;5.85;;;1.20;99.90;;;;;;5057336;28;20206;-75
2024/01/13 00:19:16;;;;;;;6.22;5.63;;;1.30;99.90;;;;;;5059844;28;20206;-75
2024/01/13 00:21:43;;;;;;;6.00;5.50;;;1.30;99.90;;;;;;5060490;28;20232;-74
2024/01/13 00:24:10;;;;;;;5.63;5.18;;;1.30;99.90;;;;;;5069029;28;20225;-74
2024/01/13 00:26:37;;;;;;;6.03;5.57;;;1.30;99.90;;;;;;5066485;28;20202;-74
2024/01/13 00:29:04;;;;;;;6.50;5.90;;;1.20;99.90;;;;;;5062529;28;20681;-76
2024/01/13 00:31:31;;;;;;;6.30;5.70;;;1.20;99.90;;;;;;5060250;28;20205;-74
2024/01/13 00:34:00;;;;;;;6.32;5.82;;;1.20;99.90;;;;;;5067987;28;20220;-75
2024/01/13 00:36:27;;;;;;;6.20;5.70;;;1.30;99.90;;;;;;5065109;28;20845;-74
2024/01/13 00:38:54;;;;;;;5.10;4.70;;;1.30;99.90;;;;;;5061864;28;20226;-75
2024/01/13 00:41:21;;;;;;;5.50;5.10;;;1.30;99.90;;;;;;5059451;28;20226;-75
2024/01/13 00:43:48;;;;;;;6.50;5.90;;;1.30;99.90;;;;;;5058250;28;20236;-75
2024/01/13 00:46:15;;;;;;;6.00;5.50;;;1.30;99.90;;;;;;5055373;28;20194;-74
2024/01/13 00:48:42;;;;;;;5.95;5.45;;;1.30;99.90;;;;;;5056555;28;20732;-74
2024/01/13 00:51:11;;;;;;;6.22;5.72;;;1.30;99.90;;;;;;5061267;28;20198;-75
2024/01/13 00:53:39;;;;;;;5.32;4.90;;;1.30;99.90;;;;;;5057300;28;20961;-75
2024/01/13 00:56:06;;;;;;;6.70;6.13;;;1.30;99.90;;;;;;5060714;28;20206;-75
2024/01/13 00:58:33;;;;;;;5.95;5.45;;;1.30;99.90;;;;;;5061838;28;20229;-74
2024/01/13 01:01:02;;;;;;;6.07;5.68;;;1.40;99.90;;;;;;5060878;28;20222;-75
2024/01/13 01:03:30;;;;;;;5.72;5.22;;;1.40;99.90;;;;;;5059099;28;20225;-75
2024/01/13 01:05:58;;;;;;;5.53;5.13;;;1.40;99.90;;;;;;5061137;28;20217;-75
2024/01/13 01:08:26;;;;;;;5.55;5.15;;;1.40;99.90;;;;;;5074636;28;20282;-74
2024/01/13 01:10:53;;;;;;;6.20;5.70;;;1.40;99.90;;;;;;5066418;28;20217;-75
2024/01/13 01:13:20;;;;;;;6.13;5.57;;;1.40;99.90;;;;;;5062060;28;20980;-74
2024/01/13 01:15:47;;;;;;;5.18;4.78;;;1.30;99.90;;;;;;5058929;28;20199;-75
2024/01/13 01:18:14;;;;;;;5.40;4.90;;;1.30;99.90;;;;;;5063469;28;20214;-75
2024/01/13 01:20:42;;;;;;;5.10;4.63;;;1.30;99.90;;;;;;5061767;28;20201;-74
2024/01/13 01:23:09;;;;;;;5.22;4.82;;;1.30;99.90;;;;;;5063734;28;20222;-75
2024/01/13 01:25:37;;;;;;;4.47;4.18;;;1.30;99.90;;;;;;5058402;28;20594;-75
2024/01/13 01:28:04;;;;;;;5.43;5.07;;;1.30;99.90;;;;;;5055472;28;20222;-74
2024/01/13 01:30:31;;;;;;;5.68;5.28;;;1.20;99.90;;;;;;5063486;28;20680;-75
2024/01/13 01:32:58;;;;;;;5.35;4.95;;;1.20;99.90;;;;;;5060285;28;20226;-75
2024/01/13 01:35:25;;;;;;;5.43;5.03;;;1.10;99.90;;;;;;5061424;28;20221;-75
2024/01/13 01:37:52;;;;;;;5.47;5.07;;;1.10;99.90;;;;;;5057522;28;20229;-74
2024/01/13 01:40:21;;;;;;;6.63;6.03;;;1.20;99.90;;;;;;5057844;28;20207;-75
2024/01/13 01:42:49;;;;;;;5.80;5.30;;;1.10;99.90;;;;;;5063009;28;20249;-75
2024/01/13 01:45:16;;;;;;;6.03;5.53;;;1.10;99.90;;;;;;5061234;28;20631;-74
2024/01/13 01:47:45;;;;;;;6.18;5.60;;;1.10;99.90;;;;;;5055793;28;20597;-75
2024/01/13 01:50:12;;;;;;;5.22;4.82;;;1.00;99.90;;;;;;5059602;28;20220;-75
2024/01/13 01:52:40;;;;;;;5.53;5.15;;;1.00;99.90;;;;;;5062996;28;20267;-75
2024/01/13 01:55:08;;;;;;;5.55;5.15;;;1.00;99.90;;;;;;5067574;28;20222;-75
2024/01/13 01:57:38;;;;;;;5.85;5.35;;;1.00;99.90;;;;;;5061037;28;20230;-75
2024/01/13 02:00:09;;;;;;;5.63;5.22;;;1.00;99.90;;;;;;5059922;28;20202;-75
2024/01/13 02:02:36;;;;;;;5.30;4.90;;;1.00;99.90;;;;;;5062680;28;20249;-75
2024/01/13 02:05:04;;;;;;;6.10;5.50;;;0.90;99.90;;;;;;5055210;28;20224;-75
2024/01/13 02:07:34;;;;;;;5.13;4.72;;;0.80;99.90;;;;;;5057008;28;20231;-75
2024/01/13 02:10:02;;;;;;;6.03;5.43;;;0.80;99.90;;;;;;5060508;28;20606;-74
2024/01/13 02:12:30;;;;;;;5.60;5.20;;;0.70;99.90;;;;;;5057373;28;20217;-74
2024/01/13 02:14:57;;;;;;;5.20;4.85;;;0.70;99.90;;;;;;5059474;28;20253;-74
2024/01/13 02:17:26;;;;;;;5.95;5.45;;;0.70;99.90;;;;;;5057797;28;20215;-74
2024/01/13 02:19:53;;;;;;;5.05;4.75;;;0.70;99.90;;;;;;5061284;28;20205;-74
2024/01/13 02:22:21;;;;;;;5.28;4.88;;;0.70;99.90;;;;;;5058550;28;20226;-74
2024/01/13 02:24:48;;;;;;;4.55;4.03;;;0.70;99.90;;;;;;5058186;28;20240;-74
2024/01/13 02:27:15;;;;;;;5.22;4.93;;;0.70;99.90;;;;;;5059189;28;20225;-74
2024/01/13 02:29:42;;;;;;;5.18;4.78;;;0.80;99.90;;;;;;5055183;28;20210;-75
2024/01/13 02:32:10;;;;;;;5.10;4.70;;;0.80;99.90;;;;;;5057703;28;20221;-74
2024/01/13 02:34:37;;;;;;;5.20;4.80;;;0.80;99.90;;;;;;5058434;28;20229;-73
2024/01/13 02:37:04;;;;;;;5.28;4.90;;;0.80;99.90;;;;;;5061142;28;20221;-75
2024/01/13 02:39:32;;;;;;;5.13;4.72;;;0.80;99.90;;;;;;5061402;28;20206;-74
2024/01/13 02:41:59;;;;;;;5.07;4.78;;;0.70;99.90;;;;;;5066309;28;20233;-75
2024/01/13 02:44:26;;;;;;;4.75;4.45;;;0.70;99.90;;;;;;5060231;28;20230;-75
2024/01/13 02:46:53;;;;;;;4.63;4.32;;;0.70;99.90;;;;;;5058685;28;21244;-75
2024/01/13 02:49:21;;;;;;;5.03;4.70;;;0.70;99.90;;;;;;5061193;28;20194;-75
2024/01/13 02:51:48;;;;;;;5.32;4.82;;;0.70;99.90;;;;;;5064403;28;20211;-75
2024/01/13 02:54:15;;;;;;;5.30;4.90;;;0.70;99.90;;;;;;5056304;28;20241;-75
2024/01/13 02:56:43;;;;;;;5.65;5.25;;;0.70;99.90;;;;;;5065302;28;20198;-75
2024/01/13 02:59:10;;;;;;;5.03;4.72;;;0.60;99.90;;;;;;5071090;28;20213;-75
2024/01/13 03:01:38;;;;;;;5.72;5.32;;;0.60;99.90;;;;;;5055163;28;20225;-76
2024/01/13 03:04:06;;;;;;;5.22;4.82;;;0.60;99.90;;;;;;5056376;28;20317;-74
2024/01/13 03:06:33;;;;;;;5.00;4.60;;;0.50;99.90;;;;;;5058564;28;20202;-75
2024/01/13 03:09:00;;;;;;;5.18;4.78;;;0.50;99.90;;;;;;5058371;28;20229;-74
2024/01/13 03:11:28;;;;;;;5.47;5.07;;;0.40;99.90;;;;;;5058162;28;20202;-74
2024/01/13 03:13:58;;;;;;;4.90;4.50;;;0.40;99.90;;;;;;5054895;28;20225;-75
2024/01/13 03:16:26;;;;;;;5.03;4.68;;;0.40;99.90;;;;;;5057558;28;20210;-74
2024/01/13 03:18:53;;;;;;;5.18;4.78;;;0.40;99.90;;;;;;5056520;28;20222;-74
2024/01/13 03:21:20;;;;;;;4.97;4.65;;;0.40;99.90;;;;;;5056595;28;20210;-74
2024/01/13 03:23:47;;;;;;;4.25;3.95;;;0.40;99.90;;;;;;5057222;28;20226;-75
2024/01/13 03:26:14;;;;;;;4.55;4.25;;;0.30;99.90;;;;;;5058646;28;20198;-75
2024/01/13 03:28:41;;;;;;;4.90;4.60;;;0.30;99.90;;;;;;5059853;28;20738;-75
2024/01/13 03:31:10;;;;;;;4.43;4.13;;;0.30;99.90;;;;;;5055843;28;20203;-75
2024/01/13 03:33:37;;;;;;;4.60;4.30;;;0.30;99.90;;;;;;5056554;28;20798;-74
2024/01/13 03:36:05;;;;;;;5.07;4.72;;;0.30;99.90;;;;;;5063408;28;20844;-75
2024/01/13 03:38:32;;;;;;;4.15;3.85;;;0.30;99.90;;;;;;5055435;28;20242;-75
2024/01/13 03:40:59;;;;;;;4.25;4.00;;;0.20;99.90;;;;;;5057022;28;20204;-74
2024/01/13 03:43:26;;;;;;;5.20;4.80;;;0.30;99.90;;;;;;5057377;28;20765;-75
2024/01/13 03:45:53;;;;;;;4.13;3.92;;;0.30;99.90;;;;;;5058186;28;20198;-74
2024/01/13 03:48:21;;;;;;;4.60;4.30;;;0.30;99.90;;;;;;5052801;28;20233;-75
2024/01/13 03:50:48;;;;;;;4.22;3.97;;;0.30;99.90;;;;;;5055292;28;20209;-75
2024/01/13 03:53:15;;;;;;;4.50;4.20;;;0.40;99.90;;;;;;5056837;28;20223;-76
2024/01/13 03:55:42;;;;;;;4.78;4.47;;;0.40;99.90;;;;;;5059117;28;20657;-75
2024/01/13 03:58:10;;;;;;;5.07;4.68;;;0.30;99.90;;;;;;5058027;28;20225;-76
2024/01/13 04:00:37;;;;;;;4.68;4.32;;;0.30;99.90;;;;;;5062956;28;20198;-75
2024/01/13 04:03:04;;;;;;;4.65;4.35;;;0.30;99.90;;;;;;5063289;28;20233;-76
2024/01/13 04:05:32;;;;;;;4.47;4.18;;;0.30;99.90;;;;;;5059818;28;20217;-75
2024/01/13 04:07:59;;;;;;;4.72;4.43;;;0.30;99.90;;;;;;5059701;28;20221;-74
2024/01/13 04:10:26;;;;;;;4.80;4.50;;;0.30;99.90;;;;;;5058428;28;20206;-75
2024/01/13 04:12:53;;;;;;;5.47;5.07;;;0.30;99.90;;;;;;5059708;28;20230;-75
2024/01/13 04:15:21;;;;;;;5.10;4.70;;;0.30;99.90;;;;;;5057316;28;20222;-76
2024/01/13 04:17:48;;;;;;;4.97;4.68;;;0.30;99.90;;;;;;5054467;28;20226;-76
2024/01/13 04:20:15;;;;;;;5.00;4.70;;;0.20;99.90;;;;;;5054631;28;20739;-76
2024/01/13 04:22:43;;;;;;;4.70;4.40;;;0.20;99.90;;;;;;5056846;28;20225;-76
2024/01/13 04:25:10;;;;;;;5.25;4.85;;;0.20;99.90;;;;;;5058882;28;20226;-75
2024/01/13 04:27:37;;;;;;;4.80;4.50;;;0.20;99.90;;;;;;5061135;28;20625;-75
2024/01/13 04:30:05;;;;;;;4.10;3.90;;;0.10;99.90;;;;;;5058388;28;20209;-75
2024/01/13 04:32:32;;;;;;;5.43;4.90;;;0.10;99.90;;;;;;5059322;28;20245;-75
2024/01/13 04:34:59;;;;;;;4.40;4.10;;;0.10;99.90;;;;;;5060074;28;20225;-74
2024/01/13 04:37:26;;;;;;;4.60;4.30;;;0.10;99.90;;;;;;5057739;28;20223;-75
2024/01/13 04:39:55;;;;;;;5.15;4.80;;;0.10;99.90;;;;;;5056032;28;20868;-76
2024/01/13 04:42:22;;;;;;;4.80;4.47;;;0.10;99.90;;;;;;5057668;28;21512;-75
2024/01/13 04:44:49;;;;;;;5.18;4.88;;;0.10;99.90;;;;;;5060695;28;20237;-76
2024/01/13 04:47:16;;;;;;;4.72;4.40;;;0.10;99.90;;;;;;5075654;28;20229;-75
2024/01/13 04:49:43;;;;;;;4.60;4.30;;;0.10;99.90;;;;;;5062208;28;20210;-75
2024/01/13 04:52:10;;;;;;;4.70;4.40;;;0.10;99.90;;;;;;5063476;28;20221;-75
2024/01/13 04:54:37;;;;;;;4.57;4.28;;;0.10;99.90;;;;;;5057253;28;20886;-74
2024/01/13 04:57:06;;;;;;;4.80;4.50;;;0.00;99.90;;;;;;5058541;28;20229;-74
2024/01/13 04:59:33;;;;;;;4.40;4.10;;;0.10;99.90;;;;;;5068025;28;20206;-75
2024/01/13 05:02:00;;;;;;;5.07;4.78;;;0.00;99.90;;;;;;5070978;28;20242;-75
2024/01/13 05:04:27;;;;;;;4.93;4.63;;;0.10;99.90;;;;;;5067601;28;20915;-75
2024/01/13 05:06:54;;;;;;;5.00;4.70;;;0.10;99.90;;;;;;5063740;28;20202;-75
2024/01/13 05:09:21;;;;;;;4.60;4.30;;;0.10;99.90;;;;;;5062034;28;20267;-75
2024/01/13 05:11:48;;;;;;;4.50;4.20;;;0.10;99.90;;;;;;5065728;28;20205;-75
2024/01/13 05:14:17;;;;;;;4.88;4.47;;;0.00;99.90;;;;;;5061743;28;20303;-74
2024/01/13 05:16:44;;;;;;;4.60;4.30;;;0.00;99.90;;;;;;5064482;28;20613;-75
2024/01/13 05:19:11;;;;;;;4.65;4.35;;;0.00;99.90;;;;;;5060704;28;20197;-75
2024/01/13 05:21:38;;;;;;;4.80;4.50;;;0.00;99.90;;;;;;5064727;28;20233;-74
2024/01/13 05:24:05;;;;;;;4.90;4.60;;;0.00;99.90;;;;;;5060944;28;20664;-75
2024/01/13 05:26:32;;;;;;;5.32;4.80;;;0.00;99.90;;;;;;5059575;28;20206;-75
2024/01/13 05:29:00;;;;;;;5.35;5.00;;;0.00;99.90;;;;;;5062449;28;20218;-75
2024/01/13 05:31:28;;;;;;;4.85;4.55;;;0.00;99.90;;;;;;5057816;28;20190;-74
2024/01/13 05:33:56;;;;;;;5.82;5.43;;;0.00;99.90;;;;;;5064140;28;20214;-76
2024/01/13 05:36:23;;;;;;;5.63;5.22;;;0.00;99.90;;;;;;5059456;28;20311;-74
2024/01/13 05:38:50;;;;;;;5.80;5.40;;;-0.10;99.90;;;;;;5063384;28;20224;-75
2024/01/13 05:41:17;;;;;;;5.80;5.40;;;-0.10;99.90;;;;;;5062497;28;20201;-75
2024/01/13 05:43:44;;;;;;;6.80;6.30;;;-0.10;99.90;;;;;;5065391;28;20214;-75
2024/01/13 05:46:12;;;;;;;6.05;5.65;;;-0.20;99.90;;;;;;5056223;28;20225;-76
2024/01/13 05:48:41;;;;;;;6.90;6.40;;;-0.20;99.90;;;;;;5062276;28;20619;-75
2024/01/13 05:51:09;;;;;;;6.75;6.25;;;-0.30;99.90;;;;;;5059902;28;20198;-75
2024/01/13 05:53:37;;;;;;;6.60;6.10;;;-0.30;99.90;;;;;;5060127;28;20455;-75
2024/01/13 05:56:06;;;;;;;6.78;6.28;;;-0.30;99.90;;;;;;5057384;28;20199;-75
2024/01/13 05:58:33;;;;;;;6.05;5.63;;;-0.20;99.90;;;;;;5064403;28;20225;-75
2024/01/13 06:01:00;;;;;;;6.07;5.68;;;-0.20;99.90;;;;;;5061615;28;20189;-75
2024/01/13 06:03:27;;;;;;;5.72;5.32;;;-0.20;99.90;;;;;;5060631;28;20576;-75
2024/01/13 06:05:55;;;;;;;6.50;6.00;;;-0.10;99.90;;;;;;5061616;28;20615;-75
2024/01/13 06:08:22;;;;;;;5.53;5.22;;;-0.10;99.90;;;;;;5061490;28;20225;-75
2024/01/13 06:10:49;;;;;;;5.60;5.20;;;-0.10;99.90;;;;;;5064160;28;20605;-76
2024/01/13 06:13:16;;;;;;;5.78;5.38;;;-0.10;99.90;;;;;;5057583;28;20210;-75
2024/01/13 06:15:43;;;;;;;5.28;4.88;;;-0.10;99.90;;;;;;5055989;28;20230;-75
2024/01/13 06:18:10;;;;;;;5.70;5.30;;;-0.10;99.90;;;;;;5059072;28;20211;-76
2024/01/13 06:20:37;;;;;;;5.50;5.20;;;-0.20;99.90;;;;;;5063000;28;20237;-75
2024/01/13 06:23:07;;;;;;;5.32;4.93;;;-0.30;99.90;;;;;;5059751;28;20727;-76
2024/01/13 06:25:35;;;;;;;4.82;4.53;;;-0.30;99.90;;;;;;5060190;28;20269;-76
2024/01/13 06:28:02;;;;;;;4.43;4.13;;;-0.30;99.90;;;;;;5057727;28;20225;-76
2024/01/13 06:30:29;;;;;;;4.85;4.53;;;-0.20;99.90;;;;;;5057207;28;20198;-75
2024/01/13 06:32:57;;;;;;;4.68;4.38;;;-0.20;99.90;;;;;;5059590;28;20222;-76
2024/01/13 06:35:24;;;;;;;4.38;4.15;;;-0.20;99.90;;;;;;5060591;28;20226;-75
2024/01/13 06:37:51;;;;;;;4.47;4.18;;;-0.10;99.90;;;;;;5077914;28;20210;-76
2024/01/13 06:40:20;;;;;;;4.25;4.00;;;-0.10;99.90;;;;;;5056775;28;20190;-75
2024/01/13 06:42:47;;;;;;;4.57;4.28;;;-0.10;99.90;;;;;;5062425;28;20230;-76
2024/01/13 06:45:14;;;;;;;4.93;4.63;;;-0.20;99.90;;;;;;5057051;28;20225;-76
2024/01/13 06:47:41;;;;;;;5.03;4.72;;;-0.20;99.90;;;;;;5059446;28;20260;-76
2024/01/13 06:50:09;;;;;;;4.43;4.10;;;-0.30;99.90;;;;;;5063078;28;20836;-76
2024/01/13 06:52:37;;;;;;;5.25;4.85;;;-0.30;99.90;;;;;;5058864;28;20728;-76
2024/01/13 06:55:05;;;;;;;5.22;4.93;;;-0.40;99.90;;;;;;5059418;28;20218;-76
2024/01/13 06:57:33;;;;;;;5.55;5.15;;;-0.40;99.90;;;;;;5060971;28;20226;-76
2024/01/13 07:00:00;;;;;;;4.82;4.53;;;-0.40;99.90;;;;;;5063697;28;20789;-76
2024/01/13 07:02:27;;;;;;;4.78;4.47;;;-0.40;99.90;;;;;;5057342;28;20214;-75
2024/01/13 07:04:54;;;;;;;5.35;4.95;;;-0.40;99.90;;;;;;5059508;28;20222;-76
2024/01/13 07:07:21;;;;;;;4.75;4.45;;;-0.40;99.90;;;;;;5062273;28;20221;-75
2024/01/13 07:09:48;;;;;;;4.63;4.32;;;-0.30;99.90;;;;;;5061963;28;20203;-76
2024/01/13 07:12:15;;;;;;;4.15;3.85;;;-0.30;99.90;;;;;;5057647;28;20253;-76
2024/01/13 07:14:43;;;;;;;4.35;4.05;;;-0.30;99.90;;;;;;5059530;28;20692;-75
2024/01/13 07:17:10;;;;;;;4.35;4.05;;;-0.30;99.90;;;;;;5058269;28;20242;-75
2024/01/13 07:19:39;;;;;;;4.35;4.15;;;-0.30;99.90;;;;;;5056609;28;20210;-75
2024/01/13 07:22:06;;;;;;;4.85;4.55;;;-0.30;99.90;;;;;;5056680;28;20222;-75
2024/01/13 07:24:33;;;;;;;4.30;4.07;;;-0.20;99.90;;;;;;5050780;28;20225;-75
2024/01/13 07:27:00;;;;;;;4.15;3.95;;;-0.20;99.90;;;;;;5058309;28;20233;-76
2024/01/13 07:29:28;;;;;;;4.60;4.30;;;-0.20;99.90;;;;;;5056850;28;20708;-74
2024/01/13 07:31:56;;;;;;;4.43;4.13;;;-0.20;99.90;;;;;;5058892;28;20238;-76
2024/01/13 07:34:23;;;;;;;4.22;4.00;;;-0.10;99.90;;;;;;5055684;28;20218;-75
2024/01/13 07:36:50;;;;;;;4.47;4.18;;;-0.10;99.90;;;;;;5057230;28;20205;-75
2024/01/13 07:39:17;;;;;;;4.10;3.85;;;-0.10;99.90;;;;;;5054907;28;20217;-75
2024/01/13 07:41:48;;;;;;;4.78;4.47;;;-0.10;99.90;;;;;;5051899;28;20202;-76
2024/01/13 07:44:15;;;;;;;4.38;4.18;;;-0.10;99.90;;;;;;5052558;28;20216;-76
2024/01/13 07:46:42;;;;;;;3.78;3.58;;;0.00;99.90;;;;;;5056884;28;20206;-75
2024/01/13 07:49:11;;;;;;;4.75;4.35;;;0.00;99.90;;;;;;5055808;28;20237;-76
2024/01/13 07:51:38;;;;;;;4.90;4.50;;;0.00;99.90;;;;;;5055566;28;20202;-75
2024/01/13 07:54:05;;;;;;;4.07;3.80;;;0.00;99.90;;;;;;5055330;28;20219;-75
2024/01/13 07:56:32;;;;;;;4.38;4.18;;;0.00;99.90;;;;;;5052233;28;20199;-76
2024/01/13 07:59:00;;;;;;;4.80;4.50;;;0.00;99.90;;;;;;5055433;28;20581;-76
2024/01/13 08:01:27;;;;;;;4.88;4.57;;;0.00;99.90;;;;;;5053743;28;20203;-75
2024/01/13 08:03:54;;;;;;;4.60;4.30;;;0.10;99.90;;;;;;5054489;28;20226;-76
2024/01/13 08:06:23;;;;;;;4.45;4.20;;;0.10;99.90;;;;;;5052905;28;20653;-75
2024/01/13 08:08:50;;;;;;;4.63;4.32;;;0.00;99.90;;;;;;5057629;28;20218;-75
2024/01/13 08:11:17;;;;;;;4.65;4.35;;;0.00;99.90;;;;;;5051942;28;20242;-75
2024/01/13 08:13:44;;;;;;;4.68;4.38;;;0.00;99.90;;;;;;5057786;28;20218;-75
2024/01/13 08:16:11;;;;;;;4.60;4.30;;;0.00;99.90;;;;;;5054143;28;20202;-76
2024/01/13 08:18:38;;;;;;;5.32;5.03;;;0.00;99.90;;;;;;5056548;28;20232;-76
2024/01/13 08:21:05;;;;;;;5.10;4.80;;;0.00;99.90;;;;;;5056128;28;20206;-78
2024/01/13 08:23:34;;;;;;;5.05;4.75;;;0.00;99.90;;;;;;5061368;28;20221;-76
2024/01/13 08:26:02;;;;;;;5.63;5.13;;;0.70;99.90;;;;;;5067679;28;20210;-75
2024/01/13 08:28:30;;;;;;;5.93;5.47;;;1.90;99.90;;;;;;5056359;28;20301;-73
2024/01/13 08:30:57;;;;;;;6.50;5.90;;;3.00;99.90;;;;;;5053384;28;20209;-76
2024/01/13 08:33:24;;;;;;;6.45;5.88;;;4.10;99.90;;;;;;5058116;28;20214;-76
2024/01/13 08:35:52;;;;;;;6.20;5.80;;;4.90;99.90;;;;;;5061689;28;20230;-76
2024/01/13 08:38:19;;;;;;;6.03;5.57;;;5.70;99.90;;;;;;5062052;28;20222;-75
2024/01/13 08:40:47;;;;;;;6.10;5.50;;;6.30;99.90;;;;;;5068474;28;20201;-76
2024/01/13 08:43:14;;;;;;;5.35;4.95;;;6.90;99.90;;;;;;5049963;28;20237;-77
2024/01/13 08:45:42;;;;;;;5.80;5.32;;;7.50;99.90;;;;;;5040635;28;20564;-76
2024/01/13 08:48:09;;;;;;;6.07;5.57;;;7.90;99.90;;;;;;5039474;28;21693;-76
2024/01/13 08:50:36;;;;;;;6.28;5.78;;;8.00;99.90;;;;;;5038904;28;20248;-75
2024/01/13 08:53:03;;;;;;;6.53;5.88;;;8.00;99.90;;;;;;5039207;28;20310;-76
2024/01/13 08:55:30;;;;;;;5.85;5.38;;;8.00;99.90;;;;;;5038078;28;20222;-75
2024/01/13 08:57:58;;;;;;;5.00;4.60;;;8.10;99.90;;;;;;5052220;28;20857;-75
2024/01/13 09:00:25;;;;;;;6.30;5.72;;;8.10;99.90;;;;;;5060238;28;20213;-75
2024/01/13 09:02:53;;;;;;;5.75;5.35;;;8.50;99.90;;;;;;5063194;28;20239;-75
2024/01/13 09:05:20;;;;;;;4.88;4.57;;;8.70;99.90;;;;;;5059255;28;20722;-75
2024/01/13 09:07:48;;;;;;;4.72;4.32;;;8.90;99.90;;;;;;5058057;28;20223;-75
2024/01/13 09:10:15;;;;;;;5.63;5.15;;;9.00;99.90;;;;;;5060790;28;20293;-75
2024/01/13 09:12:42;;;;;;;5.03;4.65;;;9.10;99.90;;;;;;5057710;28;20305;-75
2024/01/13 09:15:12;;;;;;;4.85;4.55;;;9.30;99.90;;;;;;5059600;28;20214;-74
2024/01/13 09:17:39;;;;;;;4.45;4.07;;;9.60;99.90;;;;;;5066533;28;20218;-73
2024/01/13 09:20:09;;;;;;;5.10;4.70;;;9.90;99.90;;;;;;5068992;28;20202;-74
2024/01/13 09:22:36;;;;;;;5.07;4.68;;;10.30;99.90;;;;;;5056346;28;20226;-75
2024/01/13 09:25:03;;;;;;;4.75;4.22;;;11.40;99.90;;;;;;5059119;28;20217;-75
2024/01/13 09:27:30;;;;;;;6.70;4.25;;;12.80;99.90;;;;;;5061335;28;20232;-74
2024/01/13 09:29:58;;;;;;;4.70;4.30;;;14.50;99.90;;;;;;5058422;28;20205;-74
2024/01/13 09:32:27;;;;;;;4.30;3.90;;;15.80;99.90;;;;;;5059996;28;20214;-75
2024/01/13 09:34:54;;;;;;;5.82;4.28;;;17.00;97.50;;;;;;5063199;28;20218;-75
2024/01/13 09:37:21;;;;;;;5.40;4.15;;;18.00;93.20;;;;;;5060220;28;20228;-75
2024/01/13 09:39:48;;;;;;;5.10;3.80;;;19.20;87.20;;;;;;5060929;28;20217;-75
2024/01/13 09:42:27;;;;;;;4.10;3.65;;;19.70;77.80;;;;;;5061167;28;20233;-75
2024/01/13 09:44:55;;;;;;;3.72;3.42;;;20.30;73.10;;;;;;5059068;28;20214;-75
2024/01/13 09:47:22;;;;;;;4.32;3.92;;;20.70;68.40;;;;;;5051910;28;20218;-75
2024/01/13 09:49:51;;;;;;;5.15;4.63;;;21.20;64.20;;;;;;5058725;28;20762;-75
2024/01/13 09:52:19;;;;;;;5.82;4.40;;;21.30;62.30;;;;;;5056685;28;20223;-76
2024/01/13 09:54:55;;;;;;;5.22;4.65;;;21.20;62.80;;;;;;5058767;28;20809;-75
2024/01/13 09:57:22;;;;;;;5.70;4.10;;;21.30;59.30;;;;;;5056140;28;20240;-76
2024/01/13 09:59:49;;;;;;;4.53;4.13;;;20.70;56.80;;;;;;5059198;28;20206;-76
2024/01/13 10:02:17;;;;;;;4.63;4.10;;;19.60;57.70;;;;;;5058897;28;20218;-74
2024/01/13 10:04:45;;;;;;;4.32;3.90;;;18.30;59.40;;;;;;5062144;28;20222;-75
2024/01/13 10:07:14;;;;;;;4.43;4.03;;;16.60;62.40;;;;;;5063213;28;20756;-75
2024/01/13 10:09:41;;;;;;;5.72;4.05;;;15.20;68.60;;;;;;5063192;28;20238;-75
2024/01/13 10:12:09;;;;;;;4.47;4.07;;;13.70;75.00;;;;;;5066642;28;20301;-76
2024/01/13 10:14:38;;;;;;;4.85;4.03;;;12.70;80.00;;;;;;5054929;28;20222;-77
2024/01/13 10:17:06;;;;;;;4.60;4.20;;;12.10;84.10;;;;;;5062608;28;20230;-75
2024/01/13 10:19:37;;;;;;;4.40;3.88;;;12.00;86.80;;;;;;5064712;28;20202;-74
2024/01/13 10:22:05;;;;;;;5.18;4.60;;;11.40;88.60;;;;;;5072723;28;20221;-75
2024/01/13 10:24:35;;;;;;;5.03;4.60;;;10.90;91.90;;;;;;5066383;28;20268;-75
2024/01/13 10:27:03;;;;;;;5.28;4.78;;;10.90;93.40;;;;;;5064658;28;20772;-74
2024/01/13 10:29:32;;;;;;;5.40;4.85;;;11.10;94.20;;;;;;5051519;28;20207;-77
2024/01/13 10:32:01;;;;;;;5.43;4.93;;;10.90;94.30;;;;;;5055690;28;20218;-76
2024/01/13 10:34:28;;;;;;;4.88;4.47;;;10.90;95.00;;;;;;5053984;28;20313;-76
2024/01/13 10:37:08;;;;;;;4.90;4.40;;;10.80;95.80;;;;;;5054611;28;20954;-76
2024/01/13 10:39:37;;;;;;;5.20;4.70;;;10.50;96.10;;;;;;5054675;28;20199;-76
2024/01/13 10:42:08;;;;;;;5.28;4.63;;;10.70;96.80;;;;;;5057237;28;20237;-76
2024/01/13 10:44:39;;;;;;;5.10;4.35;;;10.80;96.80;;;;;;5055781;28;20222;-77
2024/01/13 10:47:10;;;;;;;4.78;4.38;;;10.80;96.50;;;;;;5054016;28;20298;-76
2024/01/13 10:49:39;;;;;;;4.88;4.32;;;10.90;96.90;;;;;;5054172;28;20199;-76
2024/01/13 10:52:07;;;;;;;8.02;4.72;;;11.20;95.00;;;;;;5056507;28;20304;-76
2024/01/13 10:54:36;;;;;;;5.35;4.43;;;11.20;94.50;;;;;;5057154;28;20226;-75
2024/01/13 10:57:03;;;;;;;4.32;3.92;;;10.80;95.50;;;;;;5055989;28;20226;-77
2024/01/13 10:59:34;;;;;;;4.50;4.10;;;10.70;95.80;;;;;;5058786;28;20202;-77
2024/01/13 11:02:06;;;;;;;4.00;3.67;;;10.50;94.90;;;;;;5060965;28;20771;-76
2024/01/13 11:04:33;;;;;;;5.35;4.43;;;10.70;96.30;;;;;;5059650;28;20279;-75
2024/01/13 11:07:00;;;;;;;4.28;3.97;;;10.80;95.80;;;;;;5055012;28;20737;-77
2024/01/13 11:09:29;;;;;;;4.90;4.25;;;11.20;95.90;;;;;;5053671;28;20222;-76
2024/01/13 11:12:09;;;;;;;4.78;4.30;;;11.20;95.50;;;;;;5057432;28;20225;-76
2024/01/13 11:14:41;;;;;;;4.65;4.25;;;11.00;95.90;;;;;;5057449;28;20225;-75
2024/01/13 11:17:08;;;;;;;4.70;4.30;;;10.70;96.50;;;;;;5056415;28;20230;-77
2024/01/13 11:19:36;;;;;;;4.53;4.13;;;10.90;96.50;;;;;;5057761;28;20202;-76
2024/01/13 11:22:33;;;;;;;4.75;4.25;;;11.20;96.60;;;;;;5054878;28;20225;-75
2024/01/13 11:25:00;;;;;;;4.18;3.78;;;11.60;95.40;;;;;;5054810;28;20222;-76
2024/01/13 11:27:31;;;;;;;4.38;3.97;;;11.80;96.00;;;;;;5054335;28;20238;-77
2024/01/13 11:29:59;;;;;;;4.13;3.80;;;11.80;95.50;;;;;;5056856;28;20221;-76
2024/01/13 11:32:28;;;;;;;6.18;4.28;;;11.90;98.70;;;;;;5061774;28;20219;-76
2024/01/13 11:34:57;;;;;;;4.68;4.25;;;11.90;97.60;;;;;;5058800;28;20209;-76
2024/01/13 11:37:24;;;;;;;5.38;4.55;;;11.80;96.20;;;;;;5065243;28;20226;-77
2024/01/13 11:39:53;;;;;;;4.60;4.22;;;11.60;95.60;;;;;;5065008;28;20209;-77
2024/01/13 11:42:25;;;;;;;5.72;4.70;;;11.30;95.50;;;;;;5061550;28;20253;-76
2024/01/13 11:44:57;;;;;;;4.75;4.35;;;10.90;96.20;;;;;;5063386;28;20917;-77
2024/01/13 11:47:29;;;;;;;4.57;4.15;;;10.80;95.50;;;;;;5060796;28;20910;-77
2024/01/13 11:49:56;;;;;;;4.78;4.38;;;10.80;95.70;;;;;;5060205;28;20198;-75
2024/01/13 11:52:31;;;;;;;5.97;4.20;;;10.90;95.50;;;;;;5067690;28;20217;-76
2024/01/13 11:54:59;;;;;;;4.70;4.30;;;10.80;95.30;;;;;;5067074;28;20245;-78
2024/01/13 11:57:26;;;;;;;4.53;4.13;;;10.70;95.70;;;;;;5063699;28;20214;-76
2024/01/13 11:59:55;;;;;;;6.32;5.03;;;10.80;95.50;;;;;;5059399;28;20198;-78
2024/01/13 12:02:23;;;;;;;5.00;4.60;;;10.70;97.60;;;;;;5062614;28;20225;-77
2024/01/13 12:04:51;;;;;;;9.65;5.28;;;10.60;96.40;;;;;;5063821;28;20268;-75
2024/01/13 12:07:18;;;;;;;5.88;5.30;;;10.60;99.70;;;;;;5062636;28;20218;-75
2024/01/13 12:09:45;;;;;;;4.78;4.38;;;11.00;99.90;;;;;;5060679;28;20209;-75
2024/01/13 12:12:13;;;;;;;6.47;4.63;;;11.40;99.00;;;;;;5061653;28;20217;-76
2024/01/13 12:14:40;;;;;;;5.53;4.50;;;11.90;99.30;;;;;;5063503;28;20214;-74
2024/01/13 12:17:08;;;;;;;4.30;3.90;;;12.30;98.80;;;;;;5060743;28;20221;-76
2024/01/13 12:19:37;;;;;;;4.85;4.45;;;12.50;98.50;;;;;;5060576;28;20293;-75
2024/01/13 12:22:05;;;;;;;4.97;4.43;;;12.70;99.10;;;;;;5054575;28;20245;-75
2024/01/13 12:24:33;;;;;;;4.65;4.25;;;12.80;97.80;;;;;;5053471;28;20230;-76
2024/01/13 12:27:00;;;;;;;5.82;4.30;;;12.90;98.10;;;;;;5059287;28;20233;-76
2024/01/13 12:29:30;;;;;;;4.93;4.40;;;12.90;98.50;;;;;;5060574;28;20732;-76
2024/01/13 12:31:58;;;;;;;4.85;4.35;;;12.80;97.20;;;;;;5055697;28;20276;-76
2024/01/13 12:34:27;;;;;;;4.43;3.80;;;12.60;97.50;;;;;;5058761;28;20218;-76
2024/01/13 12:36:55;;;;;;;3.90;3.60;;;12.60;98.10;;;;;;5053688;28;20213;-76
2024/01/13 12:39:23;;;;;;;5.20;4.20;;;12.70;97.50;;;;;;5055544;28;21031;-76
2024/01/13 12:41:51;;;;;;;4.10;3.70;;;12.50;96.10;;;;;;5058063;28;20234;-76
2024/01/13 12:44:17;;;;;;;3.97;3.67;;;12.30;96.60;;;;;;5052237;28;20222;-76
2024/01/13 12:46:45;;;;;;;3.63;3.33;;;11.90;96.30;;;;;;5050134;28;20621;-77
2024/01/13 12:49:13;;;;;;;4.20;3.80;;;11.50;95.10;;;;;;5059217;28;20209;-76
2024/01/13 12:51:45;;;;;;;6.68;4.05;;;11.30;96.50;;;;;;5053296;28;20209;-75
2024/01/13 12:54:15;;;;;;;3.80;3.33;;;11.40;97.40;;;;;;5051369;28;20215;-76
2024/01/13 12:56:42;;;;;;;4.07;3.78;;;11.60;97.20;;;;;;5055023;28;20202;-76